sensor_id;sensor_type;location;lat;lon;timestamp;temperature;humidity
23713;DHT22;12035;49.978;8.298;2023-01-13T00:03:01;12.50;81.80
23713;DHT22;12035;49.978;8.298;2023-01-13T00:07:58;12.50;81.70
23713;DHT22;12035;49.978;8.298;2023-01-13T00:12:59;12.50;81.80
23713;DHT22;12035;49.978;8.298;2023-01-13T00:17:58;12.50;81.80
23713;DHT22;12035;49.978;8.298;2023-01-13T00:22:55;12.60;82.60
23713;DHT22;12035;49.978;8.298;2023-01-13T00:27:54;12.60;81.70
23713;DHT22;12035;49.978;8.298;2023-01-13T00:32:51;12.60;81.70
23713;DHT22;12035;49.978;8.298;2023-01-13T00:37:50;12.60;81.70
23713;DHT22;12035;49.978;8.298;2023-01-13T00:42:47;12.60;81.70
23713;DHT22;12035;49.978;8.298;2023-01-13T00:48:02;12.60;81.90
23713;DHT22;12035;49.978;8.298;2023-01-13T00:53:01;12.60;82.00
23713;DHT22;12035;49.978;8.298;2023-01-13T00:57:58;12.60;81.90
23713;DHT22;12035;49.978;8.298;2023-01-13T01:02:58;12.60;81.80
23713;DHT22;12035;49.978;8.298;2023-01-13T01:07:55;12.60;81.70
23713;DHT22;12035;49.978;8.298;2023-01-13T01:12:54;12.60;81.70
23713;DHT22;12035;49.978;8.298;2023-01-13T01:17:51;12.60;82.40
23713;DHT22;12035;49.978;8.298;2023-01-13T01:22:48;12.60;81.70
23713;DHT22;12035;49.978;8.298;2023-01-13T01:27:45;12.60;82.50
23713;DHT22;12035;49.978;8.298;2023-01-13T01:32:43;12.60;81.70
23713;DHT22;12035;49.978;8.298;2023-01-13T01:37:40;12.70;81.80
23713;DHT22;12035;49.978;8.298;2023-01-13T01:42:38;12.70;81.70
23713;DHT22;12035;49.978;8.298;2023-01-13T01:47:58;12.60;81.60
23713;DHT22;12035;49.978;8.298;2023-01-13T01:53:01;12.70;81.60
23713;DHT22;12035;49.978;8.298;2023-01-13T01:58:06;12.60;81.50
23713;DHT22;12035;49.978;8.298;2023-01-13T02:03:08;12.70;81.60
23713;DHT22;12035;49.978;8.298;2023-01-13T02:08:07;12.70;81.60
23713;DHT22;12035;49.978;8.298;2023-01-13T02:13:09;12.70;81.40
23713;DHT22;12035;49.978;8.298;2023-01-13T02:29:50;12.70;80.90
23713;DHT22;12035;49.978;8.298;2023-01-13T02:35:16;12.70;80.80
23713;DHT22;12035;49.978;8.298;2023-01-13T02:40:20;12.70;80.60
23713;DHT22;12035;49.978;8.298;2023-01-13T02:45:24;12.70;80.40
23713;DHT22;12035;49.978;8.298;2023-01-13T02:50:26;12.70;80.40
23713;DHT22;12035;49.978;8.298;2023-01-13T02:55:29;12.70;80.40
23713;DHT22;12035;49.978;8.298;2023-01-13T03:00:30;12.70;80.40
23713;DHT22;12035;49.978;8.298;2023-01-13T03:05:29;12.70;80.40
23713;DHT22;12035;49.978;8.298;2023-01-13T03:10:41;12.70;80.50
23713;DHT22;12035;49.978;8.298;2023-01-13T03:15:50;12.70;80.60
23713;DHT22;12035;49.978;8.298;2023-01-13T03:20:57;12.70;80.80
23713;DHT22;12035;49.978;8.298;2023-01-13T03:26:06;12.70;80.90
23713;DHT22;12035;49.978;8.298;2023-01-13T03:31:10;12.70;80.90
23713;DHT22;12035;49.978;8.298;2023-01-13T03:36:11;12.70;80.90
23713;DHT22;12035;49.978;8.298;2023-01-13T03:41:15;12.70;80.90
23713;DHT22;12035;49.978;8.298;2023-01-13T03:46:20;12.70;80.90
23713;DHT22;12035;49.978;8.298;2023-01-13T03:51:21;12.70;80.90
23713;DHT22;12035;49.978;8.298;2023-01-13T03:56:25;12.80;80.90
23713;DHT22;12035;49.978;8.298;2023-01-13T04:01:32;12.70;80.90
23713;DHT22;12035;49.978;8.298;2023-01-13T04:06:33;12.80;80.80
23713;DHT22;12035;49.978;8.298;2023-01-13T04:11:40;12.80;80.60
23713;DHT22;12035;49.978;8.298;2023-01-13T04:16:40;12.80;80.40
23713;DHT22;12035;49.978;8.298;2023-01-13T04:21:38;12.80;80.50
23713;DHT22;12035;49.978;8.298;2023-01-13T04:26:35;12.80;80.50
23713;DHT22;12035;49.978;8.298;2023-01-13T04:31:32;12.80;80.40
23713;DHT22;12035;49.978;8.298;2023-01-13T04:36:30;12.80;80.20
23713;DHT22;12035;49.978;8.298;2023-01-13T04:41:27;12.80;80.20
23713;DHT22;12035;49.978;8.298;2023-01-13T04:46:45;12.90;80.30
23713;DHT22;12035;49.978;8.298;2023-01-13T04:51:44;12.90;80.20
23713;DHT22;12035;49.978;8.298;2023-01-13T04:56:41;12.90;80.90
23713;DHT22;12035;49.978;8.298;2023-01-13T05:01:39;12.90;80.30
23713;DHT22;12035;49.978;8.298;2023-01-13T05:06:36;12.90;80.50
23713;DHT22;12035;49.978;8.298;2023-01-13T05:11:35;12.90;81.00
23713;DHT22;12035;49.978;8.298;2023-01-13T05:16:52;12.80;81.30
23713;DHT22;12035;49.978;8.298;2023-01-13T05:21:56;12.80;81.50
23713;DHT22;12035;49.978;8.298;2023-01-13T05:27:13;12.80;81.70
23713;DHT22;12035;49.978;8.298;2023-01-13T05:32:10;12.70;82.20
23713;DHT22;12035;49.978;8.298;2023-01-13T05:37:07;12.70;82.80
23713;DHT22;12035;49.978;8.298;2023-01-13T05:42:07;12.60;82.80
23713;DHT22;12035;49.978;8.298;2023-01-13T05:47:23;12.60;83.10
23713;DHT22;12035;49.978;8.298;2023-01-13T05:52:20;12.50;83.10
23713;DHT22;12035;49.978;8.298;2023-01-13T05:57:17;12.50;82.40
23713;DHT22;12035;49.978;8.298;2023-01-13T06:02:14;12.50;81.50
23713;DHT22;12035;49.978;8.298;2023-01-13T06:07:13;12.50;81.20
23713;DHT22;12035;49.978;8.298;2023-01-13T06:12:11;12.40;80.70
23713;DHT22;12035;49.978;8.298;2023-01-13T06:17:10;12.40;80.70
23713;DHT22;12035;49.978;8.298;2023-01-13T06:22:14;12.40;80.70
23713;DHT22;12035;49.978;8.298;2023-01-13T06:27:12;12.30;80.50
23713;DHT22;12035;49.978;8.298;2023-01-13T06:32:13;12.30;80.40
23713;DHT22;12035;49.978;8.298;2023-01-13T06:37:15;12.20;80.20
23713;DHT22;12035;49.978;8.298;2023-01-13T06:42:16;12.20;79.70
23713;DHT22;12035;49.978;8.298;2023-01-13T06:47:30;12.10;79.50
23713;DHT22;12035;49.978;8.298;2023-01-13T06:52:29;12.00;79.40
23713;DHT22;12035;49.978;8.298;2023-01-13T06:57:26;11.90;79.40
23713;DHT22;12035;49.978;8.298;2023-01-13T07:02:23;11.90;79.50
23713;DHT22;12035;49.978;8.298;2023-01-13T07:07:22;11.80;79.50
23713;DHT22;12035;49.978;8.298;2023-01-13T07:12:20;11.80;79.60
23713;DHT22;12035;49.978;8.298;2023-01-13T07:17:17;11.80;79.70
23713;DHT22;12035;49.978;8.298;2023-01-13T07:22:19;11.70;79.60
23713;DHT22;12035;49.978;8.298;2023-01-13T07:27:16;11.70;80.10
23713;DHT22;12035;49.978;8.298;2023-01-13T07:32:15;11.70;79.60
23713;DHT22;12035;49.978;8.298;2023-01-13T07:37:12;11.70;79.40
23713;DHT22;12035;49.978;8.298;2023-01-13T07:42:08;11.70;80.00
23713;DHT22;12035;49.978;8.298;2023-01-13T07:47:24;11.60;79.10
23713;DHT22;12035;49.978;8.298;2023-01-13T07:52:22;11.60;79.10
23713;DHT22;12035;49.978;8.298;2023-01-13T07:57:19;11.60;79.30
23713;DHT22;12035;49.978;8.298;2023-01-13T08:02:16;11.60;79.10
23713;DHT22;12035;49.978;8.298;2023-01-13T08:07:14;11.60;79.10
23713;DHT22;12035;49.978;8.298;2023-01-13T08:12:12;11.50;79.00
23713;DHT22;12035;49.978;8.298;2023-01-13T08:17:26;11.50;79.10
23713;DHT22;12035;49.978;8.298;2023-01-13T08:22:25;11.50;79.10
23713;DHT22;12035;49.978;8.298;2023-01-13T08:27:22;11.50;79.20
23713;DHT22;12035;49.978;8.298;2023-01-13T08:32:19;11.50;79.20
23713;DHT22;12035;49.978;8.298;2023-01-13T08:37:16;11.50;79.00
23713;DHT22;12035;49.978;8.298;2023-01-13T08:42:15;11.50;78.80
23713;DHT22;12035;49.978;8.298;2023-01-13T08:47:12;11.50;78.40
23713;DHT22;12035;49.978;8.298;2023-01-13T08:52:09;11.50;78.20
23713;DHT22;12035;49.978;8.298;2023-01-13T08:57:06;11.50;78.20
23713;DHT22;12035;49.978;8.298;2023-01-13T09:02:11;11.50;78.20
23713;DHT22;12035;49.978;8.298;2023-01-13T09:07:10;11.50;78.20
23713;DHT22;12035;49.978;8.298;2023-01-13T09:12:10;11.50;78.10
23713;DHT22;12035;49.978;8.298;2023-01-13T09:17:26;11.60;78.00
23713;DHT22;12035;49.978;8.298;2023-01-13T09:22:23;11.70;78.20
23713;DHT22;12035;49.978;8.298;2023-01-13T09:27:21;11.80;78.50
23713;DHT22;12035;49.978;8.298;2023-01-13T09:32:18;12.00;79.20
23713;DHT22;12035;49.978;8.298;2023-01-13T09:37:17;12.30;78.80
23713;DHT22;12035;49.978;8.298;2023-01-13T09:42:19;12.50;77.90
23713;DHT22;12035;49.978;8.298;2023-01-13T09:47:44;12.80;76.40
23713;DHT22;12035;49.978;8.298;2023-01-13T09:52:45;13.20;74.60
23713;DHT22;12035;49.978;8.298;2023-01-13T09:57:42;13.50;74.60
23713;DHT22;12035;49.978;8.298;2023-01-13T10:02:57;13.80;74.20
23713;DHT22;12035;49.978;8.298;2023-01-13T10:08:09;14.10;72.70
23713;DHT22;12035;49.978;8.298;2023-01-13T10:13:14;14.40;71.50
23713;DHT22;12035;49.978;8.298;2023-01-13T10:18:17;14.50;70.20
23713;DHT22;12035;49.978;8.298;2023-01-13T10:23:39;14.70;67.60
23713;DHT22;12035;49.978;8.298;2023-01-13T10:28:50;14.90;66.30
23713;DHT22;12035;49.978;8.298;2023-01-13T10:33:48;14.80;64.60
23713;DHT22;12035;49.978;8.298;2023-01-13T10:39:06;14.70;64.70
23713;DHT22;12035;49.978;8.298;2023-01-13T10:44:09;14.50;63.50
23713;DHT22;12035;49.978;8.298;2023-01-13T10:49:26;14.40;64.70
23713;DHT22;12035;49.978;8.298;2023-01-13T10:54:30;14.10;64.80
23713;DHT22;12035;49.978;8.298;2023-01-13T10:59:46;13.90;66.00
23713;DHT22;12035;49.978;8.298;2023-01-13T11:05:08;13.80;67.20
23713;DHT22;12035;49.978;8.298;2023-01-13T11:10:20;13.80;67.10
23713;DHT22;12035;49.978;8.298;2023-01-13T11:15:21;13.90;67.40
23713;DHT22;12035;49.978;8.298;2023-01-13T11:20:24;14.00;65.70
23713;DHT22;12035;49.978;8.298;2023-01-13T11:25:30;14.20;65.50
23713;DHT22;12035;49.978;8.298;2023-01-13T11:30:39;14.40;64.20
23713;DHT22;12035;49.978;8.298;2023-01-13T11:35:42;14.50;63.20
23713;DHT22;12035;49.978;8.298;2023-01-13T11:40:45;14.70;62.20
23713;DHT22;12035;49.978;8.298;2023-01-13T11:45:48;14.80;60.90
23713;DHT22;12035;49.978;8.298;2023-01-13T11:50:53;14.90;59.90
23713;DHT22;12035;49.978;8.298;2023-01-13T11:56:04;14.90;59.40
23713;DHT22;12035;49.978;8.298;2023-01-13T12:06:42;14.80;59.20
23713;DHT22;12035;49.978;8.298;2023-01-13T12:11:50;14.80;59.20
23713;DHT22;12035;49.978;8.298;2023-01-13T12:17:18;14.70;59.20
23713;DHT22;12035;49.978;8.298;2023-01-13T12:22:22;14.60;59.60
23713;DHT22;12035;49.978;8.298;2023-01-13T12:27:33;14.50;60.80
23713;DHT22;12035;49.978;8.298;2023-01-13T12:32:37;14.40;62.10
23713;DHT22;12035;49.978;8.298;2023-01-13T12:37:40;14.30;63.20
23713;DHT22;12035;49.978;8.298;2023-01-13T12:42:47;14.30;62.20
23713;DHT22;12035;49.978;8.298;2023-01-13T12:48:05;14.40;61.90
23713;DHT22;12035;49.978;8.298;2023-01-13T12:53:28;14.50;61.00
23713;DHT22;12035;49.978;8.298;2023-01-13T12:58:31;14.70;60.30
23713;DHT22;12035;49.978;8.298;2023-01-13T13:03:34;14.80;60.30
23713;DHT22;12035;49.978;8.298;2023-01-13T13:08:50;14.90;59.50
23713;DHT22;12035;49.978;8.298;2023-01-13T13:13:55;15.00;58.50
23713;DHT22;12035;49.978;8.298;2023-01-13T13:24:43;15.00;57.80
23713;DHT22;12035;49.978;8.298;2023-01-13T13:30:22;14.90;58.40
23713;DHT22;12035;49.978;8.298;2023-01-13T13:35:34;14.60;59.20
23713;DHT22;12035;49.978;8.298;2023-01-13T13:40:46;14.40;60.10
23713;DHT22;12035;49.978;8.298;2023-01-13T13:46:22;14.20;60.80
23713;DHT22;12035;49.978;8.298;2023-01-13T13:51:42;14.00;61.30
23713;DHT22;12035;49.978;8.298;2023-01-13T13:56:46;13.80;62.50
23713;DHT22;12035;49.978;8.298;2023-01-13T14:01:50;13.70;62.80
23713;DHT22;12035;49.978;8.298;2023-01-13T14:06:57;13.60;62.80
23713;DHT22;12035;49.978;8.298;2023-01-13T14:12:00;13.60;63.10
23713;DHT22;12035;49.978;8.298;2023-01-13T14:16:59;13.50;63.70
23713;DHT22;12035;49.978;8.298;2023-01-13T14:21:57;13.40;63.70
23713;DHT22;12035;49.978;8.298;2023-01-13T14:27:07;13.30;63.60
23713;DHT22;12035;49.978;8.298;2023-01-13T14:32:09;13.10;63.30
23713;DHT22;12035;49.978;8.298;2023-01-13T14:37:23;12.90;63.50
23713;DHT22;12035;49.978;8.298;2023-01-13T14:42:21;12.80;63.40
23713;DHT22;12035;49.978;8.298;2023-01-13T14:47:22;12.80;64.30
23713;DHT22;12035;49.978;8.298;2023-01-13T14:52:22;12.70;65.00
23713;DHT22;12035;49.978;8.298;2023-01-13T14:57:24;12.60;65.20
23713;DHT22;12035;49.978;8.298;2023-01-13T15:02:39;12.50;65.10
23713;DHT22;12035;49.978;8.298;2023-01-13T15:07:37;12.50;65.40
23713;DHT22;12035;49.978;8.298;2023-01-13T15:12:36;12.40;65.70
23713;DHT22;12035;49.978;8.298;2023-01-13T15:17:36;12.40;65.80
23713;DHT22;12035;49.978;8.298;2023-01-13T15:22:33;12.30;66.00
23713;DHT22;12035;49.978;8.298;2023-01-13T15:27:31;12.20;66.10
23713;DHT22;12035;49.978;8.298;2023-01-13T15:32:29;12.20;66.20
23713;DHT22;12035;49.978;8.298;2023-01-13T15:37:28;12.10;66.20
23713;DHT22;12035;49.978;8.298;2023-01-13T15:42:25;12.10;66.30
23713;DHT22;12035;49.978;8.298;2023-01-13T15:47:40;12.00;66.50
23713;DHT22;12035;49.978;8.298;2023-01-13T15:52:41;12.00;66.70
23713;DHT22;12035;49.978;8.298;2023-01-13T15:57:48;11.90;66.70
23713;DHT22;12035;49.978;8.298;2023-01-13T16:02:45;11.90;66.70
23713;DHT22;12035;49.978;8.298;2023-01-13T16:07:44;11.80;66.90
23713;DHT22;12035;49.978;8.298;2023-01-13T16:12:41;11.80;67.10
23713;DHT22;12035;49.978;8.298;2023-01-13T16:17:38;11.80;67.30
23713;DHT22;12035;49.978;8.298;2023-01-13T16:22:36;11.70;67.50
23713;DHT22;12035;49.978;8.298;2023-01-13T16:27:34;11.70;67.70
23713;DHT22;12035;49.978;8.298;2023-01-13T16:32:31;11.70;67.50
23713;DHT22;12035;49.978;8.298;2023-01-13T16:37:28;11.60;67.40
23713;DHT22;12035;49.978;8.298;2023-01-13T16:42:26;11.60;67.70
23713;DHT22;12035;49.978;8.298;2023-01-13T16:47:25;11.50;68.00
23713;DHT22;12035;49.978;8.298;2023-01-13T16:52:22;11.50;67.90
23713;DHT22;12035;49.978;8.298;2023-01-13T16:57:19;11.50;67.90
23713;DHT22;12035;49.978;8.298;2023-01-13T17:02:16;11.50;67.70
23713;DHT22;12035;49.978;8.298;2023-01-13T17:07:15;11.50;67.30
23713;DHT22;12035;49.978;8.298;2023-01-13T17:12:13;11.50;67.10
23713;DHT22;12035;49.978;8.298;2023-01-13T17:17:19;11.60;67.00
23713;DHT22;12035;49.978;8.298;2023-01-13T17:22:19;11.50;66.60
23713;DHT22;12035;49.978;8.298;2023-01-13T17:27:17;11.50;66.60
23713;DHT22;12035;49.978;8.298;2023-01-13T17:32:16;11.50;66.80
23713;DHT22;12035;49.978;8.298;2023-01-13T17:37:14;11.50;66.80
23713;DHT22;12035;49.978;8.298;2023-01-13T17:42:14;11.50;66.80
23713;DHT22;12035;49.978;8.298;2023-01-13T17:47:11;11.50;66.90
23713;DHT22;12035;49.978;8.298;2023-01-13T17:52:08;11.50;66.90
23713;DHT22;12035;49.978;8.298;2023-01-13T17:57:05;11.50;66.80
23713;DHT22;12035;49.978;8.298;2023-01-13T18:02:04;11.40;66.90
23713;DHT22;12035;49.978;8.298;2023-01-13T18:07:02;11.40;66.80
23713;DHT22;12035;49.978;8.298;2023-01-13T18:11:59;11.30;67.10
23713;DHT22;12035;49.978;8.298;2023-01-13T18:16:57;11.30;67.10
23713;DHT22;12035;49.978;8.298;2023-01-13T18:21:55;11.40;66.90
23713;DHT22;12035;49.978;8.298;2023-01-13T18:27:11;11.40;66.80
23713;DHT22;12035;49.978;8.298;2023-01-13T18:32:14;11.30;66.80
23713;DHT22;12035;49.978;8.298;2023-01-13T18:37:14;11.30;66.90
23713;DHT22;12035;49.978;8.298;2023-01-13T18:42:12;11.30;67.00
23713;DHT22;12035;49.978;8.298;2023-01-13T18:47:28;11.30;67.10
23713;DHT22;12035;49.978;8.298;2023-01-13T18:52:27;11.30;66.90
23713;DHT22;12035;49.978;8.298;2023-01-13T18:57:26;11.30;66.80
23713;DHT22;12035;49.978;8.298;2023-01-13T19:02:24;11.20;66.90
23713;DHT22;12035;49.978;8.298;2023-01-13T19:07:24;11.20;67.00
23713;DHT22;12035;49.978;8.298;2023-01-13T19:12:25;11.20;67.10
23713;DHT22;12035;49.978;8.298;2023-01-13T19:17:24;11.20;66.90
23713;DHT22;12035;49.978;8.298;2023-01-13T19:22:23;11.20;66.90
23713;DHT22;12035;49.978;8.298;2023-01-13T19:27:26;11.20;66.90
23713;DHT22;12035;49.978;8.298;2023-01-13T19:32:24;11.20;66.80
23713;DHT22;12035;49.978;8.298;2023-01-13T19:37:21;11.10;66.80
23713;DHT22;12035;49.978;8.298;2023-01-13T19:42:26;11.10;66.60
23713;DHT22;12035;49.978;8.298;2023-01-13T19:47:40;11.10;66.60
23713;DHT22;12035;49.978;8.298;2023-01-13T19:52:40;11.10;66.60
23713;DHT22;12035;49.978;8.298;2023-01-13T19:57:39;11.00;66.70
23713;DHT22;12035;49.978;8.298;2023-01-13T20:02:37;11.00;66.70
23713;DHT22;12035;49.978;8.298;2023-01-13T20:07:39;11.10;66.80
23713;DHT22;12035;49.978;8.298;2023-01-13T20:12:37;11.00;66.70
23713;DHT22;12035;49.978;8.298;2023-01-13T20:17:36;11.00;66.90
23713;DHT22;12035;49.978;8.298;2023-01-13T20:22:33;10.90;66.80
23713;DHT22;12035;49.978;8.298;2023-01-13T20:27:32;10.90;67.00
23713;DHT22;12035;49.978;8.298;2023-01-13T20:32:30;10.80;67.10
23713;DHT22;12035;49.978;8.298;2023-01-13T20:37:27;10.80;67.30
23713;DHT22;12035;49.978;8.298;2023-01-13T20:42:24;10.80;67.50
23713;DHT22;12035;49.978;8.298;2023-01-13T20:47:25;10.70;67.70
23713;DHT22;12035;49.978;8.298;2023-01-13T20:52:24;10.70;67.80
23713;DHT22;12035;49.978;8.298;2023-01-13T20:57:21;10.70;68.00
23713;DHT22;12035;49.978;8.298;2023-01-13T21:02:19;10.70;68.20
23713;DHT22;12035;49.978;8.298;2023-01-13T21:07:17;10.70;68.20
23713;DHT22;12035;49.978;8.298;2023-01-13T21:12:16;10.70;68.30
23713;DHT22;12035;49.978;8.298;2023-01-13T21:17:30;10.80;68.30
23713;DHT22;12035;49.978;8.298;2023-01-13T21:22:46;10.80;68.20
23713;DHT22;12035;49.978;8.298;2023-01-13T21:27:45;10.80;68.30
23713;DHT22;12035;49.978;8.298;2023-01-13T21:32:43;10.80;68.20
23713;DHT22;12035;49.978;8.298;2023-01-13T21:37:42;10.70;68.30
23713;DHT22;12035;49.978;8.298;2023-01-13T21:42:39;10.70;68.60
23713;DHT22;12035;49.978;8.298;2023-01-13T21:47:55;10.70;68.80
23713;DHT22;12035;49.978;8.298;2023-01-13T21:52:54;10.70;68.90
23713;DHT22;12035;49.978;8.298;2023-01-13T21:57:54;10.70;69.00
23713;DHT22;12035;49.978;8.298;2023-01-13T22:02:52;10.70;69.50
23713;DHT22;12035;49.978;8.298;2023-01-13T22:07:52;10.70;70.50
23713;DHT22;12035;49.978;8.298;2023-01-13T22:12:51;10.70;70.00
23713;DHT22;12035;49.978;8.298;2023-01-13T22:17:49;10.70;70.10
23713;DHT22;12035;49.978;8.298;2023-01-13T22:22:47;10.60;70.10
23713;DHT22;12035;49.978;8.298;2023-01-13T22:27:46;10.60;70.40
23713;DHT22;12035;49.978;8.298;2023-01-13T22:32:44;10.60;70.60
23713;DHT22;12035;49.978;8.298;2023-01-13T22:37:42;10.60;70.60
23713;DHT22;12035;49.978;8.298;2023-01-13T22:42:41;10.60;70.60
23713;DHT22;12035;49.978;8.298;2023-01-13T22:47:40;10.60;70.60
23713;DHT22;12035;49.978;8.298;2023-01-13T22:52:37;10.60;70.60
23713;DHT22;12035;49.978;8.298;2023-01-13T22:57:34;10.70;70.60
23713;DHT22;12035;49.978;8.298;2023-01-13T23:02:31;10.60;70.50
23713;DHT22;12035;49.978;8.298;2023-01-13T23:07:30;10.60;70.50
23713;DHT22;12035;49.978;8.298;2023-01-13T23:12:27;10.60;70.50
23713;DHT22;12035;49.978;8.298;2023-01-13T23:17:24;10.60;70.60
23713;DHT22;12035;49.978;8.298;2023-01-13T23:22:21;10.60;70.60
23713;DHT22;12035;49.978;8.298;2023-01-13T23:27:19;10.70;70.60
23713;DHT22;12035;49.978;8.298;2023-01-13T23:32:16;10.70;70.60
23713;DHT22;12035;49.978;8.298;2023-01-13T23:37:13;10.70;70.50
23713;DHT22;12035;49.978;8.298;2023-01-13T23:42:10;10.60;70.50
23713;DHT22;12035;49.978;8.298;2023-01-13T23:47:09;10.70;70.60
23713;DHT22;12035;49.978;8.298;2023-01-13T23:52:07;10.60;70.50
23713;DHT22;12035;49.978;8.298;2023-01-13T23:57:04;10.60;70.40
